createdAt,value
2019-05-25T00:02:36.711Z,23.57
2019-05-25T00:08:07.052Z,16.17
2019-05-25T00:10:29.793Z,11.38
2019-05-25T00:15:58.998Z,8.95
2019-05-25T00:18:44.386Z,7.42
2019-05-25T00:21:42.646Z,5.70
2019-05-25T00:30:13.481Z,6.47
2019-05-25T00:33:06.876Z,8.13
2019-05-25T00:36:07.140Z,7.37
2019-05-25T00:38:50.290Z,7.65
2019-05-25T00:41:44.861Z,8.58
2019-05-25T00:44:16.758Z,7.65
2019-05-25T00:53:59.828Z,8.85
2019-05-25T00:56:36.228Z,7.65
2019-05-25T00:59:13.351Z,8.98
2019-05-25T01:01:53.662Z,8.28
2019-05-25T01:04:26.166Z,6.37
2019-05-25T01:07:01.454Z,7.03
2019-05-25T01:13:00.090Z,7.58
2019-05-25T01:15:22.093Z,7.90
2019-05-25T01:18:05.825Z,7.35
2019-05-25T01:20:50.893Z,7.50
2019-05-25T01:24:03.134Z,6.05
2019-05-25T01:26:27.836Z,8.93
2019-05-25T01:28:44.951Z,8.53
2019-05-25T01:31:32.241Z,7.17
2019-05-25T01:34:18.598Z,7.65
2019-05-25T01:37:00.081Z,8.28
2019-05-25T01:39:50.290Z,7.78
2019-05-25T01:43:01.103Z,7.15
2019-05-25T01:45:25.799Z,7.87
2019-05-25T01:47:59.418Z,7.10
2019-05-25T01:50:34.918Z,7.85
2019-05-25T01:56:53.591Z,7.67
2019-05-25T01:59:29.185Z,7.17
2019-05-25T02:02:03.794Z,8.70
2019-05-25T02:04:38.379Z,7.80
2019-05-25T02:07:16.171Z,8.70
2019-05-25T02:12:48.395Z,7.65
2019-05-25T02:22:31.605Z,9.88
2019-05-25T02:25:18.909Z,8.28
2019-05-25T02:27:52.354Z,8.43
2019-05-25T02:30:39.275Z,7.92
2019-05-25T02:33:14.418Z,9.53
2019-05-25T02:36:02.238Z,8.93
2019-05-25T02:38:42.357Z,11.70
2019-05-25T02:41:16.453Z,9.95
2019-05-25T02:43:50.515Z,10.63
2019-05-25T02:46:21.749Z,9.90
2019-05-25T02:48:52.863Z,8.30
2019-05-25T02:51:25.736Z,15.13
2019-05-25T02:53:58.001Z,11.00
2019-05-25T02:56:30.880Z,7.97
2019-05-25T02:59:11.744Z,11.00
2019-05-25T03:02:32.639Z,8.15
2019-05-25T03:04:18.749Z,11.50
2019-05-25T03:07:44.500Z,12.35
2019-05-25T03:09:45.243Z,7.83
2019-05-25T03:12:17.558Z,8.03
2019-05-25T03:14:52.702Z,8.38
2019-05-25T03:17:35.641Z,8.30
2019-05-25T03:20:02.027Z,10.43
2019-05-25T03:22:37.357Z,9.68
2019-05-25T03:29:01.159Z,12.40
2019-05-25T03:31:24.595Z,10.85
2019-05-25T03:40:42.108Z,9.78
2019-05-25T03:43:22.730Z,9.40
2019-05-25T03:45:55.785Z,10.93
2019-05-25T03:48:26.110Z,6.95
2019-05-25T03:51:02.842Z,6.92
2019-05-25T03:57:08.944Z,5.65
2019-05-25T03:59:48.111Z,7.20
2019-05-25T04:02:20.519Z,5.37
2019-05-25T04:04:55.268Z,7.12
2019-05-25T04:07:33.686Z,5.60
2019-05-25T04:10:07.951Z,5.35
2019-05-25T04:12:39.501Z,5.30
2019-05-25T04:15:24.030Z,6.30
2019-05-25T04:17:53.805Z,5.08
2019-05-25T04:20:31.150Z,4.22
2019-05-25T04:23:05.723Z,6.92
2019-05-25T04:25:43.796Z,7.15
2019-05-25T04:28:39.212Z,4.65
2019-05-25T04:31:15.121Z,4.60
2019-05-25T04:33:48.419Z,4.15
2019-05-25T04:36:21.356Z,2.77
2019-05-25T04:38:59.827Z,6.72
2019-05-25T04:41:39.011Z,3.52
2019-05-25T04:44:24.369Z,3.85
2019-05-25T04:47:07.243Z,3.35
2019-05-25T04:49:39.954Z,4.87
2019-05-25T04:52:27.405Z,3.70
2019-05-25T04:54:53.882Z,2.85
2019-05-25T04:57:28.154Z,4.40
2019-05-25T05:00:01.961Z,2.70
2019-05-25T05:02:38.193Z,3.10
2019-05-25T05:05:14.874Z,4.78
2019-05-25T05:07:48.151Z,4.97
2019-05-25T05:10:25.445Z,3.00
2019-05-25T05:12:58.033Z,2.58
2019-05-25T05:15:31.564Z,3.92
2019-05-25T05:18:05.984Z,4.80
2019-05-25T05:20:37.149Z,3.55
2019-05-25T05:23:14.036Z,3.02
2019-05-25T05:25:56.517Z,6.60
2019-05-25T05:28:22.311Z,6.92
2019-05-25T05:30:55.304Z,4.58
2019-05-25T05:33:29.067Z,3.80
2019-05-25T05:36:01.828Z,5.08
2019-05-25T05:38:41.034Z,5.25
2019-05-25T05:41:15.837Z,4.12
2019-05-25T05:43:48.648Z,3.15
2019-05-25T05:46:23.641Z,4.50
2019-05-25T05:49:01.515Z,4.17
2019-05-25T05:51:38.304Z,3.58
2019-05-25T05:54:15.059Z,3.15
2019-05-25T05:56:47.614Z,2.58
2019-05-25T05:59:20.405Z,3.20
2019-05-25T06:01:56.507Z,2.83
2019-05-25T06:04:32.197Z,3.30
2019-05-25T06:07:40.865Z,2.47
2019-05-25T06:09:41.947Z,6.92
2019-05-25T06:12:14.430Z,3.70
2019-05-25T06:14:46.989Z,2.77
2019-05-25T06:17:18.897Z,2.33
2019-05-25T06:19:50.032Z,2.55
2019-05-25T06:22:24.391Z,4.83
2019-05-25T06:24:55.551Z,3.83
2019-05-25T06:27:27.918Z,4.15
2019-05-25T06:30:06.605Z,3.85
2019-05-25T06:32:35.779Z,2.60
2019-05-25T06:35:08.517Z,3.55
2019-05-25T06:37:39.703Z,5.00
2019-05-25T06:40:14.992Z,2.40
2019-05-25T06:42:48.082Z,2.67
2019-05-25T06:45:24.515Z,3.27
2019-05-25T06:48:04.448Z,4.33
2019-05-25T06:50:31.115Z,3.10
2019-05-25T06:53:05.274Z,2.90
2019-05-25T07:11:51.007Z,5.37
2019-05-25T07:17:59.333Z,4.80
2019-05-25T07:20:39.805Z,4.45
2019-05-25T07:23:16.467Z,4.20
2019-05-25T07:32:00.169Z,3.75
2019-05-25T07:34:34.550Z,3.75
2019-05-25T07:37:10.007Z,4.30
2019-05-25T07:39:41.160Z,4.28
2019-05-25T07:42:13.972Z,4.35
2019-05-25T07:44:46.227Z,5.80
2019-05-25T07:47:21.060Z,3.05
2019-05-25T09:48:45.781Z,5.92
2019-05-25T10:16:28.787Z,6.15
2019-05-25T10:36:06.604Z,6.08
2019-05-25T10:38:52.304Z,3.50
2019-05-25T10:51:36.426Z,7.35
2019-05-25T10:54:17.119Z,3.05
2019-05-25T10:56:52.162Z,5.62
2019-05-25T10:59:51.851Z,3.40
2019-05-25T11:02:37.753Z,4.28
2019-05-25T11:05:00.855Z,4.17
2019-05-25T11:07:31.929Z,4.53
2019-05-25T11:10:06.252Z,2.98
2019-05-25T11:12:51.707Z,3.85
2019-05-25T11:15:23.796Z,3.50
2019-05-25T11:17:56.552Z,5.35
2019-05-25T11:20:32.654Z,3.02
2019-05-25T11:23:15.794Z,3.47
2019-05-25T11:25:50.573Z,2.75
2019-05-25T11:28:26.106Z,3.55
2019-05-25T11:31:03.715Z,2.52
2019-05-25T11:43:21.297Z,3.33
2019-05-25T11:45:54.881Z,5.03
2019-05-25T11:48:31.051Z,2.77
2019-05-25T11:51:02.154Z,2.40
2019-05-25T11:53:36.583Z,2.60
2019-05-25T11:56:18.023Z,3.27
2019-05-25T11:58:49.245Z,4.90
2019-05-25T12:01:20.519Z,3.50
2019-05-25T12:03:51.771Z,3.52
2019-05-25T12:06:26.980Z,4.90
2019-05-25T12:09:00.563Z,4.67
2019-05-25T12:27:18.495Z,4.47
2019-05-25T12:36:42.706Z,4.12
2019-05-25T12:39:35.494Z,3.80
2019-05-25T12:45:47.338Z,3.45
2019-05-25T13:19:53.237Z,7.75
2019-05-25T13:22:24.286Z,6.03
2019-05-25T13:31:25.292Z,4.03
2019-05-25T13:33:59.490Z,5.55
2019-05-25T13:36:36.635Z,7.45
2019-05-25T13:39:08.900Z,2.92
2019-05-25T13:41:39.985Z,5.45
2019-05-25T13:44:12.492Z,4.67
2019-05-25T13:46:43.550Z,4.67
2019-05-25T13:49:14.682Z,5.22
2019-05-25T13:51:47.420Z,4.33
2019-05-25T13:54:19.847Z,4.03
2019-05-25T13:56:52.645Z,4.12
2019-05-25T14:16:52.521Z,2.98
2019-05-25T15:48:02.240Z,8.90
2019-05-25T15:50:40.747Z,8.03
2019-05-25T15:53:06.506Z,6.65
2019-05-25T15:55:37.558Z,5.40
2019-05-25T15:58:07.907Z,4.42
2019-05-25T16:00:51.813Z,4.33
2019-05-25T16:03:24.185Z,5.97
2019-05-25T16:05:56.331Z,7.37
2019-05-25T16:08:27.398Z,6.45
2019-05-25T16:10:59.958Z,3.27
2019-05-25T16:13:31.083Z,3.67
2019-05-25T16:16:02.231Z,5.03
2019-05-25T16:18:33.496Z,3.72
2019-05-25T16:21:04.602Z,2.55
2019-05-25T16:23:37.267Z,3.40
2019-05-25T16:26:08.523Z,4.15
2019-05-25T16:28:39.598Z,4.78
2019-05-25T16:31:10.666Z,3.37
2019-05-25T16:33:42.800Z,3.80
2019-05-25T16:36:13.913Z,5.85
2019-05-25T16:38:46.895Z,5.58
2019-05-25T16:41:17.919Z,5.80
2019-05-25T16:43:50.595Z,3.42
2019-05-25T16:46:21.649Z,4.40
2019-05-25T16:48:52.906Z,3.72
2019-05-25T16:51:23.946Z,5.00
2019-05-25T16:53:56.619Z,6.28
2019-05-25T16:56:27.707Z,5.50
2019-05-25T16:58:58.798Z,5.22
2019-05-25T17:01:46.939Z,5.85
2019-05-25T17:04:03.467Z,2.87
2019-05-25T17:06:37.571Z,4.40
2019-05-25T17:09:08.783Z,5.47
2019-05-25T17:11:39.873Z,4.95
2019-05-25T17:14:12.525Z,4.78
2019-05-25T17:16:43.593Z,5.45
2019-05-25T17:19:15.539Z,6.15
2019-05-25T17:21:46.627Z,12.88
2019-05-25T17:24:18.164Z,7.00
2019-05-25T17:26:49.382Z,9.03
2019-05-25T17:29:20.693Z,7.25
2019-05-25T17:31:52.579Z,5.37
2019-05-25T17:34:26.183Z,14.68
2019-05-25T17:36:57.228Z,8.93
2019-05-25T17:39:28.362Z,8.23
2019-05-25T17:42:01.068Z,5.72
2019-05-25T17:44:32.132Z,6.58
2019-05-25T17:47:03.229Z,5.97
2019-05-25T17:49:34.383Z,6.12
2019-05-25T17:52:05.482Z,9.60
2019-05-25T17:54:36.567Z,8.48
2019-05-25T17:57:09.727Z,6.62
2019-05-25T17:59:40.830Z,5.80
2019-05-25T18:02:11.861Z,7.42
2019-05-25T18:04:43.782Z,6.62
2019-05-25T18:07:15.642Z,7.00
2019-05-25T18:09:46.805Z,6.65
2019-05-25T18:12:17.882Z,5.87
2019-05-25T18:14:50.452Z,4.00
2019-05-25T18:17:21.527Z,4.75
2019-05-25T18:19:53.421Z,5.20
2019-05-25T18:22:28.830Z,5.72
2019-05-25T18:25:02.204Z,9.10
2019-05-25T18:27:33.302Z,8.00
2019-05-25T18:30:06.216Z,9.70
2019-05-25T18:32:37.608Z,9.60
2019-05-25T18:35:09.851Z,10.55
2019-05-25T18:37:41.121Z,8.50
2019-05-25T18:40:12.345Z,6.37
2019-05-25T18:42:43.399Z,9.23
2019-05-25T18:45:14.892Z,27.27
2019-05-25T18:47:45.940Z,14.23
2019-05-25T18:50:18.150Z,10.80
2019-05-25T18:52:49.227Z,5.90
2019-05-25T18:55:21.930Z,21.27
2019-05-25T18:57:53.176Z,42.33
2019-05-25T19:00:24.652Z,11.63
2019-05-25T19:02:55.708Z,4.72
2019-05-25T19:05:27.744Z,7.20
2019-05-25T19:07:59.051Z,5.45
2019-05-25T19:10:30.238Z,4.78
2019-05-25T19:13:04.369Z,7.08
2019-05-25T19:15:35.429Z,6.95
2019-05-25T19:18:06.562Z,5.78
2019-05-25T19:20:38.448Z,4.62
2019-05-25T19:27:06.289Z,5.20
2019-05-25T19:42:43.012Z,8.68
2019-05-25T19:48:18.850Z,6.60
2019-05-25T19:50:50.089Z,9.45
2019-05-25T19:53:24.525Z,8.18
2019-05-25T19:56:05.280Z,8.43
2019-05-25T20:08:39.278Z,8.45
2019-05-25T20:11:11.872Z,8.93
2019-05-25T20:13:47.445Z,7.97
2019-05-25T20:16:25.081Z,9.35
2019-05-25T20:19:02.328Z,8.70
2019-05-25T20:21:35.171Z,8.95
2019-05-25T20:24:14.906Z,7.37
2019-05-25T20:26:48.151Z,9.50
2019-05-25T20:29:19.245Z,7.47
2019-05-25T20:31:52.798Z,11.28
2019-05-25T20:38:28.469Z,7.92
2019-05-25T20:41:02.801Z,6.03
2019-05-25T20:44:04.225Z,8.40
2019-05-25T20:46:32.702Z,6.87
2019-05-25T20:49:04.808Z,5.65
2019-05-25T20:51:37.639Z,6.85
2019-05-25T20:54:08.730Z,7.28
2019-05-25T20:56:51.701Z,8.03
2019-05-25T20:59:22.872Z,9.80
2019-05-25T21:01:53.136Z,9.68
2019-05-25T21:04:27.400Z,7.75
2019-05-25T21:07:00.008Z,9.03
2019-05-25T21:09:34.159Z,5.03
2019-05-25T21:12:06.249Z,6.83
2019-05-25T21:14:41.022Z,5.78
2019-05-25T21:17:14.655Z,6.92
2019-05-25T21:19:49.416Z,6.78
2019-05-25T21:22:22.112Z,6.83
2019-05-25T21:24:56.284Z,5.85
2019-05-25T21:27:28.459Z,4.10
2019-05-25T21:30:02.683Z,6.17
2019-05-25T21:32:35.225Z,8.15
2019-05-25T21:35:10.247Z,6.60
2019-05-25T21:37:41.432Z,5.75
2019-05-25T21:40:16.177Z,5.15
2019-05-25T21:42:50.473Z,7.87
2019-05-25T21:45:22.034Z,5.37
2019-05-25T21:47:56.208Z,8.65
2019-05-25T21:50:28.463Z,7.37
2019-05-25T21:52:59.582Z,6.65
2019-05-25T21:55:35.010Z,10.95
2019-05-25T21:58:10.542Z,9.40
2019-05-25T22:00:48.104Z,7.90
2019-05-25T22:03:25.207Z,6.72
2019-05-25T22:06:02.990Z,9.13
2019-05-25T22:08:35.986Z,8.70
2019-05-25T22:11:11.650Z,11.68
2019-05-25T22:13:42.892Z,8.53
2019-05-25T22:16:14.291Z,7.33
2019-05-25T22:18:47.045Z,8.08
2019-05-25T22:21:20.296Z,6.42
2019-05-25T22:23:51.380Z,7.25
2019-05-25T22:26:26.752Z,5.35
2019-05-25T22:28:57.969Z,6.53
2019-05-25T22:31:30.029Z,7.78
2019-05-25T22:34:02.755Z,6.80
2019-05-25T22:36:40.487Z,7.22
2019-05-25T22:39:09.066Z,5.30
2019-05-25T22:41:40.219Z,8.38
2019-05-25T22:44:11.743Z,7.08
2019-05-25T22:46:42.839Z,7.17
2019-05-25T22:49:14.040Z,5.87
2019-05-25T22:51:46.893Z,5.72
2019-05-25T22:54:20.874Z,7.85
2019-05-25T22:56:53.641Z,7.47
2019-05-25T22:59:30.670Z,7.17
2019-05-25T23:02:00.426Z,5.33
2019-05-25T23:04:31.453Z,6.85
2019-05-25T23:07:04.674Z,6.35
2019-05-25T23:09:38.616Z,5.28
2019-05-25T23:12:14.772Z,5.75
2019-05-25T23:14:49.595Z,7.03
2019-05-25T23:17:22.161Z,5.27
2019-05-25T23:19:55.881Z,6.90
2019-05-25T23:22:26.451Z,8.53
2019-05-25T23:25:00.727Z,5.15
2019-05-25T23:27:31.992Z,6.67
2019-05-25T23:30:05.770Z,7.15
2019-05-25T23:32:41.006Z,7.58
2019-05-25T23:35:19.765Z,6.50
2019-05-25T23:37:52.301Z,6.25
2019-05-25T23:40:23.399Z,8.18
2019-05-25T23:42:54.585Z,10.48
2019-05-25T23:45:27.296Z,5.40
2019-05-25T23:48:06.654Z,7.08
2019-05-25T23:50:35.059Z,6.45
2019-05-25T23:53:08.514Z,9.75
2019-05-25T23:55:42.404Z,7.15
2019-05-25T23:58:13.524Z,7.67
